»·PEaware :: N992W KSNA-KSBA

N992W :: KSNA-KSBA

FLIGHT INFORMATION

Flight Status: Arrived
Operator: Privately registered:
United States
More flights under this callsign
Pilot: Bill F. (18685)
Aircraft: PIPER PA-31/31P NAVAJO CHIEFTAIN
(PA31)
More flights by this aircraft type
Origin: KSNA John Wayne-Orange Co
United States
Destination: KSBA Santa Barbara Mun
United States
More flights between these airports :: More routes between these airports
Route: +
File this flight plan on PilotEdge
Remarks:
Altitude:
(Current/Filed)
0ft
Speed:
(Current/Filed)
0kts
Departed: 11-Feb-19 11:06 PM
Arrived: 11-Feb-19 11:52 PM
Distance/Time
Traveled:
131nm/0:46
Distance/Time
To Go:
Arrived

Flight Plot

Page will automatically refresh every two minutes.


Map Options




Map Legend


Flown Route
Filed Route
Departure Airport
Arrival Airport
Navaid (VOR, NDB)
Fix

Horizontal Profiles

Position Reports

Time Latitude Longitude Heading Altitude Ground
Speed
11-Feb-19 22:52 33.667676 -117.870983 221 60ft 0kts
11-Feb-19 22:53 33.667634 -117.871207 302 60ft 10kts
11-Feb-19 22:54 33.667792 -117.871448 318 60ft 0kts
11-Feb-19 22:55 33.667792 -117.871448 318 60ft 0kts
11-Feb-19 22:56 33.667792 -117.871448 318 60ft 0kts
11-Feb-19 22:57 33.668655 -117.871335 44 60ft 17kts
11-Feb-19 22:58 33.672459 -117.867903 24 60ft 10kts
11-Feb-19 22:59 33.673372 -117.867691 50 60ft 0kts
11-Feb-19 23:00 33.673372 -117.867691 50 60ft 0kts
11-Feb-19 23:01 33.673372 -117.867691 50 60ft 0kts
11-Feb-19 23:02 33.677238 -117.865114 27 60ft 20kts
11-Feb-19 23:03 33.680398 -117.864591 292 60ft 11kts
11-Feb-19 23:04 33.680459 -117.864761 295 60ft 1kts
11-Feb-19 23:05 33.665393 -117.874815 210 415ft 129kts
11-Feb-19 23:06 33.642714 -117.910608 241 1761ft 137kts
11-Feb-19 23:07 33.621716 -117.952412 237 2257ft 149kts
11-Feb-19 23:08 33.605515 -117.992349 262 3428ft 126kts
11-Feb-19 23:09 33.604249 -118.033688 273 4583ft 114kts
11-Feb-19 23:10 33.610280 -118.070619 263 5820ft 102kts
11-Feb-19 23:11 33.597948 -118.105101 243 6733ft 121kts
11-Feb-19 23:12 33.579378 -118.142898 236 7705ft 129kts
11-Feb-19 23:13 33.560798 -118.178205 240 8869ft 124kts
11-Feb-19 23:14 33.546243 -118.214972 252 10013ft 121kts
11-Feb-19 23:15 33.534137 -118.255619 247 10603ft 148kts
11-Feb-19 23:16 33.532698 -118.306567 304 10639ft 172kts
11-Feb-19 23:17 33.564159 -118.351056 307 10636ft 176kts
11-Feb-19 23:18 33.596118 -118.395863 307 10636ft 176kts
11-Feb-19 23:19 33.628476 -118.441292 307 10539ft 177kts
11-Feb-19 23:20 33.660584 -118.486291 307 10540ft 176kts
11-Feb-19 23:21 33.692339 -118.530773 307 10540ft 175kts
11-Feb-19 23:22 33.724259 -118.575477 307 10539ft 175kts
11-Feb-19 23:23 33.755978 -118.619888 307 10539ft 175kts
11-Feb-19 23:24 33.787520 -118.664047 307 10542ft 175kts
11-Feb-19 23:25 33.819571 -118.708942 307 10542ft 176kts
11-Feb-19 23:26 33.851454 -118.753596 307 10542ft 176kts
11-Feb-19 23:27 33.883520 -118.798496 307 10542ft 176kts
11-Feb-19 23:28 33.915423 -118.843161 307 10541ft 176kts
11-Feb-19 23:29 33.947395 -118.887910 307 10541ft 176kts
11-Feb-19 23:30 33.979351 -118.932629 307 10541ft 176kts
11-Feb-19 23:31 34.011380 -118.977439 307 10541ft 176kts
11-Feb-19 23:32 34.043086 -119.021789 307 10541ft 176kts
11-Feb-19 23:33 34.075236 -119.066752 307 10541ft 176kts
11-Feb-19 23:34 34.107314 -119.111602 307 10540ft 176kts
11-Feb-19 23:35 34.139520 -119.156599 307 10207ft 177kts
11-Feb-19 23:36 34.173427 -119.204238 307 8525ft 194kts
11-Feb-19 23:37 34.209186 -119.254837 307 6589ft 202kts
11-Feb-19 23:38 34.244971 -119.305545 307 4705ft 199kts
11-Feb-19 23:39 34.280599 -119.355920 307 2952ft 194kts
11-Feb-19 23:40 34.315222 -119.404705 307 1797ft 177kts
11-Feb-19 23:41 34.345590 -119.448025 306 2083ft 155kts
11-Feb-19 23:42 34.370474 -119.491350 295 1887ft 151kts
11-Feb-19 23:43 34.387349 -119.537200 288 1795ft 147kts
11-Feb-19 23:44 34.405586 -119.582539 291 1549ft 154kts
11-Feb-19 23:45 34.420326 -119.631930 283 2536ft 164kts
11-Feb-19 23:46 34.430793 -119.684639 275 2073ft 129kts
11-Feb-19 23:47 34.431152 -119.723987 265 1318ft 104kts
11-Feb-19 23:48 34.430216 -119.760618 265 1079ft 98kts
11-Feb-19 23:49 34.429977 -119.791827 264 767ft 78kts
11-Feb-19 23:50 34.428495 -119.819389 265 298ft 84kts
11-Feb-19 23:51 34.427734 -119.843525 262 16ft 37kts
11-Feb-19 23:52 34.428455 -119.845559 61 16ft 3kts
11-Feb-19 23:53 34.428920 -119.839886 89 16ft 14kts
11-Feb-19 23:54 34.428737 -119.834786 179 16ft 0kts
11-Feb-19 23:55 34.428737 -119.834786 179 16ft 0kts
11-Feb-19 23:56 34.427887 -119.835593 270 16ft 17kts
11-Feb-19 23:57 34.427348 -119.870167 266 548ft 142kts
11-Feb-19 23:58 34.426147 -119.923580 266 1103ft 173kts
11-Feb-19 23:59 34.431565 -119.981276 276 1662ft 182kts
12-Feb-19 00:00 34.434682 -120.039566 265 2122ft 172kts
12-Feb-19 00:01 34.427926 -119.840518 263 16ft 54kts
12-Feb-19 00:02 34.459605 -120.103739 295 3457ft 169kts
12-Feb-19 00:03 34.477540 -120.140442 311 3338ft 238kts
12-Feb-19 00:04 34.506791 -120.176434 328 4523ft 174kts
12-Feb-19 00:05 34.546404 -120.220556 291 4043ft 195kts
12-Feb-19 00:06 34.566794 -120.282263 290 4354ft 184kts

Navigation Log

Ident Type
Flight plan parsing failed, navigation log unavailable